sensor_id;sensor_type;location;lat;lon;timestamp;temperature;humidity
58153;DHT22;43967;51.634;5.566;2023-02-24T00:03:40;17.10;68.10
58153;DHT22;43967;51.634;5.566;2023-02-24T00:09:07;17.20;68.10
58153;DHT22;43967;51.634;5.566;2023-02-24T00:14:33;17.20;68.10
58153;DHT22;43967;51.634;5.566;2023-02-24T00:19:56;17.20;68.10
58153;DHT22;43967;51.634;5.566;2023-02-24T00:25:17;17.30;68.20
58153;DHT22;43967;51.634;5.566;2023-02-24T00:30:38;17.30;68.10
58153;DHT22;43967;51.634;5.566;2023-02-24T00:36:07;17.30;68.00
58153;DHT22;43967;51.634;5.566;2023-02-24T00:41:31;17.30;68.00
58153;DHT22;43967;51.634;5.566;2023-02-24T00:46:52;17.40;68.00
58153;DHT22;43967;51.634;5.566;2023-02-24T00:52:16;17.40;68.00
58153;DHT22;43967;51.634;5.566;2023-02-24T00:57:39;17.40;68.00
58153;DHT22;43967;51.634;5.566;2023-02-24T01:03:00;17.40;68.00
58153;DHT22;43967;51.634;5.566;2023-02-24T01:08:21;17.40;68.30
58153;DHT22;43967;51.634;5.566;2023-02-24T01:13:43;17.40;67.90
58153;DHT22;43967;51.634;5.566;2023-02-24T01:19:05;17.40;68.00
58153;DHT22;43967;51.634;5.566;2023-02-24T01:24:27;17.40;68.60
58153;DHT22;43967;51.634;5.566;2023-02-24T01:29:49;17.30;67.90
58153;DHT22;43967;51.634;5.566;2023-02-24T01:35:10;17.30;67.80
58153;DHT22;43967;51.634;5.566;2023-02-24T01:40:32;17.30;67.50
58153;DHT22;43967;51.634;5.566;2023-02-24T01:45:53;17.30;67.60
58153;DHT22;43967;51.634;5.566;2023-02-24T01:51:15;17.30;67.50
58153;DHT22;43967;51.634;5.566;2023-02-24T01:56:37;17.20;67.30
58153;DHT22;43967;51.634;5.566;2023-02-24T02:02:01;17.30;67.20
58153;DHT22;43967;51.634;5.566;2023-02-24T02:07:24;17.20;67.00
58153;DHT22;43967;51.634;5.566;2023-02-24T02:12:46;17.20;66.90
58153;DHT22;43967;51.634;5.566;2023-02-24T02:18:25;17.20;66.90
58153;DHT22;43967;51.634;5.566;2023-02-24T02:23:53;17.20;66.80
58153;DHT22;43967;51.634;5.566;2023-02-24T02:35:20;17.20;66.50
58153;DHT22;43967;51.634;5.566;2023-02-24T02:46:54;17.10;66.50
58153;DHT22;43967;51.634;5.566;2023-02-24T02:52:26;17.10;66.40
58153;DHT22;43967;51.634;5.566;2023-02-24T02:57:51;17.00;66.40
58153;DHT22;43967;51.634;5.566;2023-02-24T03:03:15;17.00;66.20
58153;DHT22;43967;51.634;5.566;2023-02-24T03:08:40;17.00;66.20
58153;DHT22;43967;51.634;5.566;2023-02-24T03:14:04;17.00;66.60
58153;DHT22;43967;51.634;5.566;2023-02-24T03:19:32;16.90;66.80
58153;DHT22;43967;51.634;5.566;2023-02-24T03:24:54;16.90;66.90
58153;DHT22;43967;51.634;5.566;2023-02-24T03:30:21;16.90;67.00
58153;DHT22;43967;51.634;5.566;2023-02-24T03:35:44;16.90;67.20
58153;DHT22;43967;51.634;5.566;2023-02-24T03:41:05;17.00;67.20
58153;DHT22;43967;51.634;5.566;2023-02-24T03:46:26;17.00;67.90
58153;DHT22;43967;51.634;5.566;2023-02-24T03:57:35;17.10;67.40
58153;DHT22;43967;51.634;5.566;2023-02-24T04:09:22;17.10;67.30
58153;DHT22;43967;51.634;5.566;2023-02-24T04:15:04;17.10;67.30
58153;DHT22;43967;51.634;5.566;2023-02-24T04:20:29;17.20;67.30
58153;DHT22;43967;51.634;5.566;2023-02-24T04:25:53;17.20;67.30
58153;DHT22;43967;51.634;5.566;2023-02-24T04:31:15;17.20;67.20
58153;DHT22;43967;51.634;5.566;2023-02-24T04:36:37;17.20;67.20
58153;DHT22;43967;51.634;5.566;2023-02-24T04:41:58;17.30;67.20
58153;DHT22;43967;51.634;5.566;2023-02-24T04:47:19;17.30;67.10
58153;DHT22;43967;51.634;5.566;2023-02-24T04:52:41;17.30;67.10
58153;DHT22;43967;51.634;5.566;2023-02-24T04:58:02;17.30;67.00
58153;DHT22;43967;51.634;5.566;2023-02-24T05:03:25;17.30;66.90
58153;DHT22;43967;51.634;5.566;2023-02-24T05:08:46;17.30;66.90
58153;DHT22;43967;51.634;5.566;2023-02-24T05:14:12;17.30;66.90
58153;DHT22;43967;51.634;5.566;2023-02-24T05:19:33;17.30;66.90
58153;DHT22;43967;51.634;5.566;2023-02-24T05:24:55;17.30;67.50
58153;DHT22;43967;51.634;5.566;2023-02-24T05:30:16;17.20;66.90
58153;DHT22;43967;51.634;5.566;2023-02-24T05:35:37;17.20;66.90
58153;DHT22;43967;51.634;5.566;2023-02-24T05:41:09;17.20;66.80
58153;DHT22;43967;51.634;5.566;2023-02-24T05:46:32;17.10;66.60
58153;DHT22;43967;51.634;5.566;2023-02-24T05:51:55;17.10;66.50
58153;DHT22;43967;51.634;5.566;2023-02-24T05:57:18;17.10;66.30
58153;DHT22;43967;51.634;5.566;2023-02-24T06:02:40;17.10;66.20
58153;DHT22;43967;51.634;5.566;2023-02-24T06:08:01;17.10;66.20
58153;DHT22;43967;51.634;5.566;2023-02-24T06:13:22;17.10;66.10
58153;DHT22;43967;51.634;5.566;2023-02-24T06:18:47;17.10;66.00
58153;DHT22;43967;51.634;5.566;2023-02-24T06:24:13;17.10;66.00
58153;DHT22;43967;51.634;5.566;2023-02-24T06:29:36;17.00;66.00
58153;DHT22;43967;51.634;5.566;2023-02-24T06:34:57;17.00;65.90
58153;DHT22;43967;51.634;5.566;2023-02-24T06:40:18;17.00;65.90
58153;DHT22;43967;51.634;5.566;2023-02-24T06:45:40;17.00;65.90
58153;DHT22;43967;51.634;5.566;2023-02-24T06:51:09;16.90;65.80
58153;DHT22;43967;51.634;5.566;2023-02-24T06:56:31;16.90;65.80
58153;DHT22;43967;51.634;5.566;2023-02-24T07:01:53;16.90;65.80
58153;DHT22;43967;51.634;5.566;2023-02-24T07:07:14;16.90;65.70
58153;DHT22;43967;51.634;5.566;2023-02-24T07:12:36;16.90;65.60
58153;DHT22;43967;51.634;5.566;2023-02-24T07:17:57;16.90;65.70
58153;DHT22;43967;51.634;5.566;2023-02-24T07:23:18;16.90;65.70
58153;DHT22;43967;51.634;5.566;2023-02-24T07:28:41;16.80;65.70
58153;DHT22;43967;51.634;5.566;2023-02-24T07:34:03;16.80;65.80
58153;DHT22;43967;51.634;5.566;2023-02-24T07:39:24;16.80;65.70
58153;DHT22;43967;51.634;5.566;2023-02-24T07:44:46;16.80;65.70
58153;DHT22;43967;51.634;5.566;2023-02-24T07:50:08;16.80;65.70
58153;DHT22;43967;51.634;5.566;2023-02-24T07:55:29;16.80;65.70
58153;DHT22;43967;51.634;5.566;2023-02-24T08:00:54;16.80;65.50
58153;DHT22;43967;51.634;5.566;2023-02-24T08:06:15;16.70;65.70
58153;DHT22;43967;51.634;5.566;2023-02-24T08:11:36;16.70;65.40
58153;DHT22;43967;51.634;5.566;2023-02-24T08:16:58;16.70;65.40
58153;DHT22;43967;51.634;5.566;2023-02-24T08:22:19;16.70;65.50
58153;DHT22;43967;51.634;5.566;2023-02-24T08:27:40;16.70;65.40
58153;DHT22;43967;51.634;5.566;2023-02-24T08:33:02;16.70;65.70
58153;DHT22;43967;51.634;5.566;2023-02-24T08:38:23;16.60;65.50
58153;DHT22;43967;51.634;5.566;2023-02-24T08:43:45;16.60;65.50
58153;DHT22;43967;51.634;5.566;2023-02-24T08:49:08;16.70;65.50
58153;DHT22;43967;51.634;5.566;2023-02-24T08:54:29;16.60;65.60
58153;DHT22;43967;51.634;5.566;2023-02-24T08:59:50;16.60;65.60
58153;DHT22;43967;51.634;5.566;2023-02-24T09:05:11;16.60;58.30
58153;DHT22;43967;51.634;5.566;2023-02-24T09:10:33;17.00;61.60
58153;DHT22;43967;51.634;5.566;2023-02-24T09:15:54;17.40;61.60
58153;DHT22;43967;51.634;5.566;2023-02-24T09:21:15;17.90;60.90
58153;DHT22;43967;51.634;5.566;2023-02-24T09:26:37;18.20;60.10
58153;DHT22;43967;51.634;5.566;2023-02-24T09:32:02;18.50;59.60
58153;DHT22;43967;51.634;5.566;2023-02-24T09:37:24;18.80;59.10
58153;DHT22;43967;51.634;5.566;2023-02-24T09:42:45;19.00;58.60
58153;DHT22;43967;51.634;5.566;2023-02-24T09:48:16;19.10;58.20
58153;DHT22;43967;51.634;5.566;2023-02-24T09:53:39;19.30;58.10
58153;DHT22;43967;51.634;5.566;2023-02-24T10:10:41;19.70;56.80
58153;DHT22;43967;51.634;5.566;2023-02-24T10:16:06;19.80;56.70
58153;DHT22;43967;51.634;5.566;2023-02-24T10:21:37;19.90;56.60
58153;DHT22;43967;51.634;5.566;2023-02-24T10:27:12;20.00;56.30
58153;DHT22;43967;51.634;5.566;2023-02-24T10:32:44;19.80;56.20
58153;DHT22;43967;51.634;5.566;2023-02-24T10:38:07;19.60;56.50
58153;DHT22;43967;51.634;5.566;2023-02-24T10:43:28;19.40;56.80
58153;DHT22;43967;51.634;5.566;2023-02-24T10:48:55;19.30;57.00
58153;DHT22;43967;51.634;5.566;2023-02-24T10:54:26;19.30;57.00
58153;DHT22;43967;51.634;5.566;2023-02-24T10:59:55;19.70;54.70
58153;DHT22;43967;51.634;5.566;2023-02-24T11:05:17;19.90;54.10
58153;DHT22;43967;51.634;5.566;2023-02-24T11:10:40;20.00;54.00
58153;DHT22;43967;51.634;5.566;2023-02-24T11:16:02;19.90;54.50
58153;DHT22;43967;51.634;5.566;2023-02-24T11:21:25;19.80;54.20
58153;DHT22;43967;51.634;5.566;2023-02-24T11:26:46;19.60;54.40
58153;DHT22;43967;51.634;5.566;2023-02-24T11:37:47;19.30;54.90
58153;DHT22;43967;51.634;5.566;2023-02-24T11:43:17;19.10;55.20
58153;DHT22;43967;51.634;5.566;2023-02-24T11:48:53;19.00;55.60
58153;DHT22;43967;51.634;5.566;2023-02-24T11:54:17;18.80;56.00
58153;DHT22;43967;51.634;5.566;2023-02-24T11:59:42;18.60;56.50
58153;DHT22;43967;51.634;5.566;2023-02-24T12:05:13;18.50;56.90
58153;DHT22;43967;51.634;5.566;2023-02-24T12:10:37;18.40;56.90
58153;DHT22;43967;51.634;5.566;2023-02-24T12:16:10;18.40;57.00
58153;DHT22;43967;51.634;5.566;2023-02-24T12:21:37;18.30;56.90
58153;DHT22;43967;51.634;5.566;2023-02-24T12:27:12;18.20;57.00
58153;DHT22;43967;51.634;5.566;2023-02-24T12:32:59;18.20;57.10
58153;DHT22;43967;51.634;5.566;2023-02-24T12:38:37;18.10;57.10
58153;DHT22;43967;51.634;5.566;2023-02-24T12:44:08;18.00;57.20
58153;DHT22;43967;51.634;5.566;2023-02-24T13:01:05;17.90;57.20
58153;DHT22;43967;51.634;5.566;2023-02-24T13:06:52;17.80;57.20
58153;DHT22;43967;51.634;5.566;2023-02-24T13:12:25;17.80;57.20
58153;DHT22;43967;51.634;5.566;2023-02-24T13:17:50;17.80;57.20
58153;DHT22;43967;51.634;5.566;2023-02-24T13:23:19;17.70;57.20
58153;DHT22;43967;51.634;5.566;2023-02-24T13:28:42;17.70;57.20
58153;DHT22;43967;51.634;5.566;2023-02-24T13:34:31;17.70;57.30
58153;DHT22;43967;51.634;5.566;2023-02-24T13:39:53;17.70;57.70
58153;DHT22;43967;51.634;5.566;2023-02-24T14:02:11;18.30;71.30
58153;DHT22;43967;51.634;5.566;2023-02-24T14:07:36;18.70;75.20
58153;DHT22;43967;51.634;5.566;2023-02-24T14:13:04;19.00;70.30
58153;DHT22;43967;51.634;5.566;2023-02-24T14:18:27;19.40;71.70
58153;DHT22;43967;51.634;5.566;2023-02-24T14:24:00;19.70;69.00
58153;DHT22;43967;51.634;5.566;2023-02-24T14:29:27;19.90;69.80
58153;DHT22;43967;51.634;5.566;2023-02-24T14:34:49;20.10;68.50
58153;DHT22;43967;51.634;5.566;2023-02-24T14:40:14;20.30;68.90
58153;DHT22;43967;51.634;5.566;2023-02-24T14:45:35;20.40;69.20
58153;DHT22;43967;51.634;5.566;2023-02-24T14:51:10;20.20;68.70
58153;DHT22;43967;51.634;5.566;2023-02-24T14:56:33;20.00;68.10
58153;DHT22;43967;51.634;5.566;2023-02-24T15:01:55;19.90;67.60
58153;DHT22;43967;51.634;5.566;2023-02-24T15:07:21;19.70;67.50
58153;DHT22;43967;51.634;5.566;2023-02-24T15:12:45;19.60;64.80
58153;DHT22;43967;51.634;5.566;2023-02-24T15:18:11;19.60;64.40
58153;DHT22;43967;51.634;5.566;2023-02-24T15:23:37;19.50;63.90
58153;DHT22;43967;51.634;5.566;2023-02-24T15:29:00;19.40;64.50
58153;DHT22;43967;51.634;5.566;2023-02-24T15:34:28;19.30;65.80
58153;DHT22;43967;51.634;5.566;2023-02-24T15:40:00;19.10;65.30
58153;DHT22;43967;51.634;5.566;2023-02-24T15:45:33;19.10;64.80
58153;DHT22;43967;51.634;5.566;2023-02-24T15:50:57;19.10;64.10
58153;DHT22;43967;51.634;5.566;2023-02-24T15:56:22;19.00;63.80
58153;DHT22;43967;51.634;5.566;2023-02-24T16:01:43;18.90;63.30
58153;DHT22;43967;51.634;5.566;2023-02-24T16:07:05;18.80;63.00
58153;DHT22;43967;51.634;5.566;2023-02-24T16:12:33;18.70;62.60
58153;DHT22;43967;51.634;5.566;2023-02-24T16:17:55;18.70;62.40
58153;DHT22;43967;51.634;5.566;2023-02-24T16:23:17;18.60;62.70
58153;DHT22;43967;51.634;5.566;2023-02-24T16:28:38;18.50;62.10
58153;DHT22;43967;51.634;5.566;2023-02-24T16:34:00;18.50;62.10
58153;DHT22;43967;51.634;5.566;2023-02-24T16:39:21;18.40;62.10
58153;DHT22;43967;51.634;5.566;2023-02-24T16:44:43;18.30;62.00
58153;DHT22;43967;51.634;5.566;2023-02-24T16:50:04;18.20;62.00
58153;DHT22;43967;51.634;5.566;2023-02-24T16:55:26;18.20;61.90
58153;DHT22;43967;51.634;5.566;2023-02-24T17:00:50;18.10;61.60
58153;DHT22;43967;51.634;5.566;2023-02-24T17:06:11;18.00;61.50
58153;DHT22;43967;51.634;5.566;2023-02-24T17:11:32;17.90;61.40
58153;DHT22;43967;51.634;5.566;2023-02-24T17:16:54;17.90;61.40
58153;DHT22;43967;51.634;5.566;2023-02-24T17:22:15;17.90;61.90
58153;DHT22;43967;51.634;5.566;2023-02-24T17:27:36;17.90;61.30
58153;DHT22;43967;51.634;5.566;2023-02-24T17:32:58;17.80;61.20
58153;DHT22;43967;51.634;5.566;2023-02-24T17:38:20;17.80;61.20
58153;DHT22;43967;51.634;5.566;2023-02-24T17:43:42;17.70;61.20
58153;DHT22;43967;51.634;5.566;2023-02-24T17:49:03;17.80;62.00
58153;DHT22;43967;51.634;5.566;2023-02-24T17:54:24;17.80;62.10
58153;DHT22;43967;51.634;5.566;2023-02-24T17:59:45;17.70;62.10
58153;DHT22;43967;51.634;5.566;2023-02-24T18:05:07;17.60;61.80
58153;DHT22;43967;51.634;5.566;2023-02-24T18:10:28;17.60;61.80
58153;DHT22;43967;51.634;5.566;2023-02-24T18:15:50;17.60;61.80
58153;DHT22;43967;51.634;5.566;2023-02-24T18:21:11;17.60;61.70
58153;DHT22;43967;51.634;5.566;2023-02-24T18:26:32;17.50;61.70
58153;DHT22;43967;51.634;5.566;2023-02-24T18:31:54;17.50;61.70
58153;DHT22;43967;51.634;5.566;2023-02-24T18:37:15;17.50;61.70
58153;DHT22;43967;51.634;5.566;2023-02-24T18:42:36;17.50;61.70
58153;DHT22;43967;51.634;5.566;2023-02-24T18:47:58;17.50;61.80
58153;DHT22;43967;51.634;5.566;2023-02-24T18:53:20;17.40;61.80
58153;DHT22;43967;51.634;5.566;2023-02-24T18:58:43;17.40;61.90
58153;DHT22;43967;51.634;5.566;2023-02-24T19:04:06;17.40;63.40
58153;DHT22;43967;51.634;5.566;2023-02-24T19:09:27;17.50;64.40
58153;DHT22;43967;51.634;5.566;2023-02-24T19:14:51;17.50;64.30
58153;DHT22;43967;51.634;5.566;2023-02-24T19:20:13;17.50;64.10
58153;DHT22;43967;51.634;5.566;2023-02-24T19:25:34;17.40;64.00
58153;DHT22;43967;51.634;5.566;2023-02-24T19:30:55;17.40;63.80
58153;DHT22;43967;51.634;5.566;2023-02-24T19:36:17;17.50;64.70
58153;DHT22;43967;51.634;5.566;2023-02-24T19:41:38;17.70;65.00
58153;DHT22;43967;51.634;5.566;2023-02-24T19:46:59;18.00;65.00
58153;DHT22;43967;51.634;5.566;2023-02-24T19:52:21;18.30;65.00
58153;DHT22;43967;51.634;5.566;2023-02-24T19:57:42;18.60;64.80
58153;DHT22;43967;51.634;5.566;2023-02-24T20:03:03;18.90;64.40
58153;DHT22;43967;51.634;5.566;2023-02-24T20:08:24;19.10;64.30
58153;DHT22;43967;51.634;5.566;2023-02-24T20:13:46;19.40;64.20
58153;DHT22;43967;51.634;5.566;2023-02-24T20:19:09;19.60;64.10
58153;DHT22;43967;51.634;5.566;2023-02-24T20:24:32;19.80;63.90
58153;DHT22;43967;51.634;5.566;2023-02-24T20:29:54;19.90;63.90
58153;DHT22;43967;51.634;5.566;2023-02-24T20:35:15;20.10;63.60
58153;DHT22;43967;51.634;5.566;2023-02-24T20:40:37;20.30;63.70
58153;DHT22;43967;51.634;5.566;2023-02-24T20:45:58;20.40;63.80
58153;DHT22;43967;51.634;5.566;2023-02-24T20:51:20;20.60;63.60
58153;DHT22;43967;51.634;5.566;2023-02-24T20:56:43;20.70;63.60
58153;DHT22;43967;51.634;5.566;2023-02-24T21:02:05;20.80;64.00
58153;DHT22;43967;51.634;5.566;2023-02-24T21:07:26;20.90;63.90
58153;DHT22;43967;51.634;5.566;2023-02-24T21:12:48;21.00;64.20
58153;DHT22;43967;51.634;5.566;2023-02-24T21:18:09;21.10;64.10
58153;DHT22;43967;51.634;5.566;2023-02-24T21:23:30;21.20;64.40
58153;DHT22;43967;51.634;5.566;2023-02-24T21:28:55;21.20;64.30
58153;DHT22;43967;51.634;5.566;2023-02-24T21:34:17;21.30;64.20
58153;DHT22;43967;51.634;5.566;2023-02-24T21:39:38;21.40;64.20
58153;DHT22;43967;51.634;5.566;2023-02-24T21:44:59;21.50;64.30
58153;DHT22;43967;51.634;5.566;2023-02-24T21:50:21;21.50;64.50
58153;DHT22;43967;51.634;5.566;2023-02-24T21:55:42;21.60;64.20
58153;DHT22;43967;51.634;5.566;2023-02-24T22:01:18;21.70;64.30
58153;DHT22;43967;51.634;5.566;2023-02-24T22:06:40;21.80;64.30
58153;DHT22;43967;51.634;5.566;2023-02-24T22:12:04;21.80;64.30
58153;DHT22;43967;51.634;5.566;2023-02-24T22:17:25;21.90;64.40
58153;DHT22;43967;51.634;5.566;2023-02-24T22:22:47;21.90;64.30
58153;DHT22;43967;51.634;5.566;2023-02-24T22:28:08;22.00;64.50
58153;DHT22;43967;51.634;5.566;2023-02-24T22:33:31;22.10;64.50
58153;DHT22;43967;51.634;5.566;2023-02-24T22:38:55;22.10;64.30
58153;DHT22;43967;51.634;5.566;2023-02-24T22:44:16;22.10;64.30
58153;DHT22;43967;51.634;5.566;2023-02-24T22:49:37;22.20;64.20
58153;DHT22;43967;51.634;5.566;2023-02-24T22:54:59;22.30;64.30
58153;DHT22;43967;51.634;5.566;2023-02-24T23:00:20;22.30;64.30
58153;DHT22;43967;51.634;5.566;2023-02-24T23:05:52;22.40;64.30
58153;DHT22;43967;51.634;5.566;2023-02-24T23:11:17;22.40;64.00
58153;DHT22;43967;51.634;5.566;2023-02-24T23:16:40;22.50;61.40
58153;DHT22;43967;51.634;5.566;2023-02-24T23:22:02;22.40;62.60
58153;DHT22;43967;51.634;5.566;2023-02-24T23:27:23;22.20;62.50
58153;DHT22;43967;51.634;5.566;2023-02-24T23:32:44;21.90;62.20
58153;DHT22;43967;51.634;5.566;2023-02-24T23:38:06;21.70;62.40
58153;DHT22;43967;51.634;5.566;2023-02-24T23:43:28;21.40;62.70
58153;DHT22;43967;51.634;5.566;2023-02-24T23:48:51;21.20;63.10
58153;DHT22;43967;51.634;5.566;2023-02-24T23:54:12;21.00;63.30
58153;DHT22;43967;51.634;5.566;2023-02-24T23:59:33;20.80;63.50
